createdAt,value
2022-12-22T00:00:23.278Z,94990.00
2022-12-22T00:01:23.318Z,94991.00
2022-12-22T00:02:23.515Z,94991.00
2022-12-22T00:03:23.407Z,94990.00
2022-12-22T00:54:34.202Z,94948.00
2022-12-22T00:55:35.162Z,94944.00
2022-12-22T00:56:35.155Z,94948.00
2022-12-22T00:57:35.162Z,94952.00
2022-12-22T00:58:35.135Z,94948.00
2022-12-22T00:59:35.116Z,94948.00
2022-12-22T01:00:35.116Z,94946.00
2022-12-22T01:01:35.282Z,94948.00
2022-12-22T01:02:35.389Z,94944.00
2022-12-22T01:03:35.148Z,94948.00
2022-12-22T01:04:35.068Z,94950.00
2022-12-22T01:05:35.068Z,94948.00
2022-12-22T01:06:35.043Z,94950.00
2022-12-22T01:07:35.036Z,94950.00
2022-12-22T01:08:35.025Z,94944.00
2022-12-22T01:09:35.025Z,94943.00
2022-12-22T01:10:35.032Z,94944.00
2022-12-22T01:11:35.012Z,94946.00
2022-12-22T01:12:34.991Z,94943.00
2022-12-22T01:13:34.976Z,94943.00
2022-12-22T01:14:34.978Z,94941.00
2022-12-22T01:15:35.086Z,94944.00
2022-12-22T01:16:35.025Z,94948.00
2022-12-22T01:17:34.943Z,94948.00
2022-12-22T01:18:34.936Z,94948.00
2022-12-22T01:19:34.928Z,94944.00
2022-12-22T01:20:34.916Z,94944.00
2022-12-22T01:21:34.901Z,94944.00
2022-12-22T01:22:34.896Z,94948.00
2022-12-22T01:23:34.886Z,94946.00
2022-12-22T01:24:34.880Z,94946.00
2022-12-22T01:25:34.862Z,94939.00
2022-12-22T01:26:34.893Z,94941.00
2022-12-22T01:27:34.847Z,94937.00
2022-12-22T01:28:34.840Z,94939.00
2022-12-22T01:29:34.827Z,94937.00
2022-12-22T01:30:34.885Z,94935.00
2022-12-22T01:31:34.828Z,94937.00
2022-12-22T01:32:34.797Z,94937.00
2022-12-22T01:33:34.796Z,94937.00
2022-12-22T01:34:34.780Z,94939.00
2022-12-22T01:35:34.772Z,94941.00
2022-12-22T01:36:34.764Z,94943.00
2022-12-22T01:37:34.755Z,94944.00
2022-12-22T01:38:34.746Z,94943.00
2022-12-22T01:39:34.733Z,94943.00
2022-12-22T01:40:34.728Z,94944.00
2022-12-22T01:41:34.715Z,94943.00
2022-12-22T01:42:34.735Z,94943.00
2022-12-22T01:43:34.699Z,94944.00
2022-12-22T01:44:34.690Z,94939.00
2022-12-22T01:45:34.674Z,94937.00
2022-12-22T01:46:34.705Z,94937.00
2022-12-22T01:47:34.661Z,94937.00
2022-12-22T01:48:34.647Z,94935.00
2022-12-22T01:49:34.656Z,94933.00
2022-12-22T01:50:34.625Z,94935.00
2022-12-22T01:51:34.626Z,94931.00
2022-12-22T01:52:34.620Z,94933.00
2022-12-22T01:53:34.607Z,94935.00
2022-12-22T01:54:34.586Z,94935.00
2022-12-22T01:55:34.600Z,94935.00
2022-12-22T01:56:34.574Z,94941.00
2022-12-22T06:50:35.120Z,94797.00
2022-12-22T16:44:05.323Z,94782.00
2022-12-22T16:44:26.417Z,94786.00
